Time;durP1;ratioP1;P1;durP2;ratioP2;P2;SDS_P1;SDS_P2;PMS_P1;PMS_P2;Temp;Humidity;BMP_temperature;BMP_pressure;BME280_temperature;BME280_humidity;BME280_pressure;Samples;Min_cycle;Max_cycle;Signal;HPM_P1;HPM_P2
2022/03/07 00:01:29;;;;;;;;;;;4.10;99.90;;;;;;5053453;28;19944;-78
2022/03/07 00:03:55;;;;;;;;;;;4.10;99.90;;;;;;5053511;28;19915;-78
2022/03/07 00:06:20;;;;;;;;;;;4.00;99.90;;;;;;5053438;28;19954;-78
2022/03/07 00:08:46;;;;;;;;;;;4.20;99.90;;;;;;5053365;28;19909;-78
2022/03/07 00:11:11;;;;;;;;;;;4.10;99.90;;;;;;5053673;28;20021;-78
2022/03/07 00:13:37;;;;;;;;;;;4.10;99.90;;;;;;5052062;28;19950;-78
2022/03/07 00:16:03;;;;;;;;;;;4.10;99.90;;;;;;5053333;28;20092;-78
2022/03/07 00:18:29;;;;;;;;;;;4.20;99.90;;;;;;5051930;28;20284;-78
2022/03/07 00:20:55;;;;;;;;;;;4.20;99.90;;;;;;5053191;28;19908;-78
2022/03/07 00:23:21;;;;;;;;;;;4.40;99.90;;;;;;5051933;28;19932;-78
2022/03/07 00:25:46;;;;;;;;;;;4.30;99.90;;;;;;5053275;28;20380;-78
2022/03/07 00:28:13;;;;;;;;;;;4.30;99.90;;;;;;5053205;28;20003;-78
2022/03/07 00:30:39;;;;;;;;;;;4.50;99.90;;;;;;5053160;28;20027;-78
2022/03/07 00:33:05;;;;;;;;;;;4.50;99.90;;;;;;5053424;28;20388;-78
2022/03/07 00:35:30;;;;;;;;;;;4.50;99.90;;;;;;5053146;28;19909;-78
2022/03/07 00:37:56;;;;;;;;;;;4.50;99.90;;;;;;5052878;28;19928;-78
2022/03/07 00:40:21;;;;;;;;;;;4.50;99.90;;;;;;5053293;28;19982;-78
2022/03/07 00:42:47;;;;;;;;;;;4.40;99.90;;;;;;5051757;28;19912;-78
2022/03/07 00:45:13;;;;;;;;;;;4.40;99.90;;;;;;5051716;28;19948;-78
2022/03/07 00:47:38;;;;;;;;;;;4.30;99.90;;;;;;5053076;28;19909;-78
2022/03/07 00:50:05;;;;;;;;;;;4.20;99.90;;;;;;5052985;28;19909;-78
2022/03/07 00:52:31;;;;;;;;;;;4.10;99.90;;;;;;5053193;28;19908;-78
2022/03/07 00:54:56;;;;;;;;;;;4.20;99.90;;;;;;5052932;28;20395;-78
2022/03/07 00:57:22;;;;;;;;;;;4.20;99.90;;;;;;5055033;28;19908;-78
2022/03/07 00:59:47;;;;;;;;;;;4.20;99.90;;;;;;5056402;28;19951;-78
2022/03/07 01:02:13;;;;;;;;;;;4.10;99.90;;;;;;5055126;28;19916;-78
2022/03/07 01:04:39;;;;;;;;;;;3.90;99.90;;;;;;5055073;28;20027;-78
2022/03/07 01:07:04;;;;;;;;;;;3.90;99.90;;;;;;5056569;28;19909;-78
2022/03/07 01:09:30;;;;;;;;;;;3.90;99.90;;;;;;5056280;28;20000;-78
2022/03/07 01:11:56;;;;;;;;;;;3.90;99.90;;;;;;5054741;28;19909;-78
2022/03/07 01:14:21;;;;;;;;;;;3.80;99.90;;;;;;5056203;28;19919;-78
2022/03/07 01:16:47;;;;;;;;;;;3.80;99.90;;;;;;5054901;28;19916;-78
2022/03/07 01:19:13;;;;;;;;;;;3.80;99.90;;;;;;5056347;28;20420;-78
2022/03/07 01:21:39;;;;;;;;;;;3.80;99.90;;;;;;5056080;28;19908;-78
2022/03/07 01:24:05;;;;;;;;;;;3.70;99.90;;;;;;5056007;28;19964;-78
2022/03/07 01:26:31;;;;;;;;;;;3.60;99.90;;;;;;5055929;28;19908;-78
2022/03/07 01:28:57;;;;;;;;;;;3.60;99.90;;;;;;5055928;28;19915;-78
2022/03/07 01:31:22;;;;;;;;;;;3.60;99.90;;;;;;5055900;28;19908;-78
2022/03/07 01:33:48;;;;;;;;;;;3.60;99.90;;;;;;5055830;28;19908;-78
2022/03/07 01:36:13;;;;;;;;;;;3.60;99.90;;;;;;5055550;28;19913;-79
2022/03/07 01:38:39;;;;;;;;;;;3.50;99.90;;;;;;5055679;28;19913;-78
2022/03/07 01:41:04;;;;;;;;;;;3.60;99.90;;;;;;5054414;28;19915;-78
2022/03/07 01:43:30;;;;;;;;;;;3.60;99.90;;;;;;5055717;28;19909;-78
2022/03/07 01:45:56;;;;;;;;;;;3.60;99.90;;;;;;5055609;28;19970;-78
2022/03/07 01:48:21;;;;;;;;;;;3.50;99.90;;;;;;5055573;28;19919;-78
2022/03/07 01:50:48;;;;;;;;;;;3.60;99.90;;;;;;5054202;28;19915;-78
2022/03/07 01:53:13;;;;;;;;;;;3.50;99.90;;;;;;5055430;28;19908;-78
2022/03/07 01:55:39;;;;;;;;;;;3.50;99.90;;;;;;5055406;28;19959;-78
2022/03/07 01:58:05;;;;;;;;;;;3.50;99.90;;;;;;5055507;28;20287;-78
2022/03/07 02:00:31;;;;;;;;;;;3.60;99.90;;;;;;5055439;28;20265;-78
2022/03/07 02:02:57;;;;;;;;;;;3.60;99.90;;;;;;5055342;28;19909;-78
2022/03/07 02:05:23;;;;;;;;;;;3.50;99.90;;;;;;5055225;28;20000;-78
2022/03/07 02:07:48;;;;;;;;;;;3.30;99.90;;;;;;5054714;28;19916;-78
2022/03/07 02:10:14;;;;;;;;;;;3.30;99.90;;;;;;5055280;28;19932;-78
2022/03/07 02:12:40;;;;;;;;;;;3.40;99.90;;;;;;5055317;28;19909;-78
2022/03/07 02:15:07;;;;;;;;;;;3.30;99.90;;;;;;5053722;28;19935;-78
2022/03/07 02:17:33;;;;;;;;;;;3.30;99.90;;;;;;5053725;28;19931;-78
2022/03/07 02:19:59;;;;;;;;;;;3.30;99.90;;;;;;5053499;28;19913;-77
2022/03/07 02:22:24;;;;;;;;;;;3.30;99.90;;;;;;5054911;28;19909;-78
2022/03/07 02:24:50;;;;;;;;;;;3.30;99.90;;;;;;5053578;28;20003;-78
2022/03/07 02:27:18;;;;;;;;;;;3.30;99.90;;;;;;5054873;28;20427;-78
2022/03/07 02:29:44;;;;;;;;;;;3.30;99.90;;;;;;5054763;28;19940;-78
2022/03/07 02:32:10;;;;;;;;;;;3.20;99.90;;;;;;5053408;28;19909;-78
2022/03/07 02:34:35;;;;;;;;;;;3.20;99.90;;;;;;5054814;28;19932;-78
2022/03/07 02:37:01;;;;;;;;;;;3.20;99.90;;;;;;5054451;28;20376;-78
2022/03/07 02:39:26;;;;;;;;;;;3.20;99.90;;;;;;5054576;28;19971;-78
2022/03/07 02:41:53;;;;;;;;;;;3.40;99.90;;;;;;5054585;28;19916;-78
2022/03/07 02:44:19;;;;;;;;;;;3.30;99.90;;;;;;5053176;28;19909;-78
2022/03/07 02:46:44;;;;;;;;;;;3.30;99.90;;;;;;5054429;28;19916;-78
2022/03/07 02:49:10;;;;;;;;;;;3.20;99.90;;;;;;5054343;28;19912;-78
2022/03/07 02:51:36;;;;;;;;;;;3.20;99.90;;;;;;5054368;28;19909;-78
2022/03/07 02:54:02;;;;;;;;;;;3.20;99.90;;;;;;5054281;28;19920;-78
2022/03/07 02:56:27;;;;;;;;;;;3.10;99.90;;;;;;5054631;28;19909;-78
2022/03/07 02:58:53;;;;;;;;;;;3.10;99.90;;;;;;5054488;28;19916;-78
2022/03/07 03:01:18;;;;;;;;;;;3.20;99.90;;;;;;5054442;28;19916;-78
2022/03/07 03:03:44;;;;;;;;;;;3.10;99.90;;;;;;5054125;28;19999;-78
2022/03/07 03:06:10;;;;;;;;;;;3.20;99.90;;;;;;5052784;28;19915;-78
2022/03/07 03:08:35;;;;;;;;;;;3.10;99.90;;;;;;5053979;28;19955;-78
2022/03/07 03:11:01;;;;;;;;;;;3.00;99.90;;;;;;5054055;28;20391;-78
2022/03/07 03:13:27;;;;;;;;;;;3.10;99.90;;;;;;5054045;28;19909;-78
2022/03/07 03:15:52;;;;;;;;;;;3.00;99.90;;;;;;5053953;28;20387;-78
2022/03/07 03:18:19;;;;;;;;;;;3.00;99.90;;;;;;5052529;28;19909;-78
2022/03/07 03:20:45;;;;;;;;;;;3.10;99.90;;;;;;5053113;28;20026;-78
2022/03/07 03:23:11;;;;;;;;;;;3.00;99.90;;;;;;5053923;28;20288;-78
2022/03/07 03:25:37;;;;;;;;;;;3.00;99.90;;;;;;5053798;28;19909;-78
2022/03/07 03:28:03;;;;;;;;;;;3.00;99.90;;;;;;5053774;28;19916;-78
2022/03/07 03:30:28;;;;;;;;;;;3.00;99.90;;;;;;5053609;28;19913;-78
2022/03/07 03:32:54;;;;;;;;;;;2.90;99.90;;;;;;5053929;28;19909;-78
2022/03/07 03:35:20;;;;;;;;;;;2.80;99.90;;;;;;5053740;28;19908;-78
2022/03/07 03:37:46;;;;;;;;;;;2.80;99.90;;;;;;5053480;28;19921;-78
2022/03/07 03:40:12;;;;;;;;;;;2.80;99.90;;;;;;5053663;28;19959;-78
2022/03/07 03:42:37;;;;;;;;;;;2.90;99.90;;;;;;5053604;28;19909;-78
2022/03/07 03:45:08;;;;;;;;;;;2.80;99.90;;;;;;5052352;28;20422;-78
2022/03/07 03:47:34;;;;;;;;;;;2.90;99.90;;;;;;5053667;28;20357;-78
2022/03/07 03:50:00;;;;;;;;;;;2.80;99.90;;;;;;5053692;28;19968;-78
2022/03/07 03:52:26;;;;;;;;;;;2.70;99.90;;;;;;5052254;28;19913;-78
2022/03/07 03:54:52;;;;;;;;;;;2.80;99.90;;;;;;5053494;28;19920;-78
2022/03/07 03:57:17;;;;;;;;;;;2.60;99.90;;;;;;5053496;28;19909;-78
2022/03/07 03:59:43;;;;;;;;;;;2.70;99.90;;;;;;5053471;28;19909;-78
2022/03/07 04:02:08;;;;;;;;;;;2.60;99.90;;;;;;5052112;28;19936;-78
2022/03/07 04:04:34;;;;;;;;;;;2.80;99.90;;;;;;5052132;28;19995;-78
2022/03/07 04:06:59;;;;;;;;;;;2.80;99.90;;;;;;5052113;28;20316;-78
2022/03/07 04:09:25;;;;;;;;;;;2.70;99.90;;;;;;5053380;28;19913;-78
2022/03/07 04:11:51;;;;;;;;;;;2.80;99.90;;;;;;5053406;28;19909;-78
2022/03/07 04:14:17;;;;;;;;;;;2.60;99.90;;;;;;5053319;28;19913;-78
2022/03/07 04:16:43;;;;;;;;;;;2.60;99.90;;;;;;5052001;28;19909;-78
2022/03/07 04:19:10;;;;;;;;;;;2.60;99.90;;;;;;5053208;28;19909;-78
2022/03/07 04:21:36;;;;;;;;;;;2.50;99.90;;;;;;5051984;28;19909;-78
2022/03/07 04:24:02;;;;;;;;;;;2.60;99.90;;;;;;5053232;28;19939;-78
2022/03/07 04:26:28;;;;;;;;;;;2.60;99.90;;;;;;5051887;28;19909;-78
2022/03/07 04:28:54;;;;;;;;;;;2.60;99.90;;;;;;5053252;28;20312;-78
2022/03/07 04:31:21;;;;;;;;;;;2.60;99.90;;;;;;5053881;28;19916;-78
2022/03/07 04:33:46;;;;;;;;;;;2.60;99.90;;;;;;5055657;28;19908;-78
2022/03/07 04:36:13;;;;;;;;;;;2.50;99.90;;;;;;5056914;28;19936;-78
2022/03/07 04:38:38;;;;;;;;;;;2.60;99.90;;;;;;5056941;28;19920;-78
2022/03/07 04:41:04;;;;;;;;;;;2.70;99.90;;;;;;5056841;28;20475;-78
2022/03/07 04:43:30;;;;;;;;;;;2.60;99.90;;;;;;5056889;28;19909;-78
2022/03/07 04:45:56;;;;;;;;;;;2.60;99.90;;;;;;5056736;28;19915;-78
2022/03/07 04:48:22;;;;;;;;;;;2.50;99.90;;;;;;5056600;28;19934;-78
2022/03/07 04:50:48;;;;;;;;;;;2.50;99.90;;;;;;5055312;28;19909;-78
2022/03/07 04:53:13;;;;;;;;;;;2.30;99.90;;;;;;5056517;28;19915;-78
2022/03/07 04:55:39;;;;;;;;;;;2.40;99.90;;;;;;5056674;28;20377;-78
2022/03/07 04:58:05;;;;;;;;;;;2.30;99.90;;;;;;5055241;28;19909;-78
2022/03/07 05:00:30;;;;;;;;;;;2.40;99.90;;;;;;5056495;28;20407;-78
2022/03/07 05:02:56;;;;;;;;;;;2.50;99.90;;;;;;5056890;28;19999;-78
2022/03/07 05:05:22;;;;;;;;;;;2.50;99.90;;;;;;5056533;28;19920;-78
2022/03/07 05:07:50;;;;;;;;;;;2.40;99.90;;;;;;5056438;28;20383;-78
2022/03/07 05:10:16;;;;;;;;;;;2.40;99.90;;;;;;5056349;28;19913;-78
2022/03/07 05:12:42;;;;;;;;;;;2.50;99.90;;;;;;5056288;28;19914;-78
2022/03/07 05:15:08;;;;;;;;;;;2.50;99.90;;;;;;5056179;28;20335;-78
2022/03/07 05:17:44;;;;;;;;;;;2.40;99.90;;;;;;5056062;28;19912;-78
2022/03/07 05:20:11;;;;;;;;;;;2.30;99.90;;;;;;5056071;28;19909;-78
2022/03/07 05:22:37;;;;;;;;;;;2.20;99.90;;;;;;5056093;28;19932;-78
2022/03/07 05:25:04;;;;;;;;;;;2.20;99.90;;;;;;5056252;28;20383;-78
2022/03/07 05:27:29;;;;;;;;;;;2.20;99.90;;;;;;5056369;28;19909;-78
2022/03/07 05:29:55;;;;;;;;;;;2.20;99.90;;;;;;5055992;28;20010;-78
2022/03/07 05:32:21;;;;;;;;;;;2.20;99.90;;;;;;5054667;28;19909;-78
2022/03/07 05:34:46;;;;;;;;;;;2.20;99.90;;;;;;5055915;28;20411;-78
2022/03/07 05:37:12;;;;;;;;;;;2.20;99.90;;;;;;5055554;28;19932;-78
2022/03/07 05:39:37;;;;;;;;;;;2.30;99.90;;;;;;5054463;28;19999;-78
2022/03/07 05:42:03;;;;;;;;;;;2.30;99.90;;;;;;5054993;28;20287;-78
2022/03/07 05:44:29;;;;;;;;;;;2.20;99.90;;;;;;5055758;28;19913;-78
2022/03/07 05:46:55;;;;;;;;;;;2.20;99.90;;;;;;5055615;28;20430;-78
2022/03/07 05:49:20;;;;;;;;;;;2.10;99.90;;;;;;5055824;28;19913;-78
2022/03/07 05:51:46;;;;;;;;;;;2.10;99.90;;;;;;5055781;28;19996;-78
2022/03/07 05:54:11;;;;;;;;;;;2.10;99.90;;;;;;5054101;28;19966;-78
2022/03/07 05:56:37;;;;;;;;;;;2.10;99.90;;;;;;5055459;28;19959;-78
2022/03/07 05:59:03;;;;;;;;;;;2.10;99.90;;;;;;5055355;28;19909;-78
2022/03/07 06:01:28;;;;;;;;;;;1.90;99.90;;;;;;5055274;28;19909;-78
2022/03/07 06:03:54;;;;;;;;;;;2.00;99.90;;;;;;5055300;28;19909;-78
2022/03/07 06:06:20;;;;;;;;;;;1.90;99.90;;;;;;5055285;28;19909;-78
2022/03/07 06:08:45;;;;;;;;;;;1.90;99.90;;;;;;5055121;28;20288;-78
2022/03/07 06:11:11;;;;;;;;;;;2.00;99.90;;;;;;5055189;28;19913;-78
2022/03/07 06:13:37;;;;;;;;;;;1.90;99.90;;;;;;5055481;28;19909;-78
2022/03/07 06:16:02;;;;;;;;;;;1.90;99.90;;;;;;5055118;28;20291;-78
2022/03/07 06:18:28;;;;;;;;;;;1.90;99.90;;;;;;5055084;28;20019;-78
2022/03/07 06:20:55;;;;;;;;;;;2.00;99.90;;;;;;5055002;28;19951;-78
2022/03/07 06:23:20;;;;;;;;;;;2.00;99.90;;;;;;5055151;28;19992;-78
2022/03/07 06:25:46;;;;;;;;;;;1.90;99.90;;;;;;5054860;28;19948;-78
2022/03/07 06:28:11;;;;;;;;;;;2.00;99.90;;;;;;5054807;28;20396;-78
2022/03/07 06:30:37;;;;;;;;;;;1.90;99.90;;;;;;5054703;28;19917;-78
2022/03/07 06:33:03;;;;;;;;;;;1.90;99.90;;;;;;5054717;28;20330;-78
2022/03/07 06:35:28;;;;;;;;;;;1.90;99.90;;;;;;5054862;28;19916;-78
2022/03/07 06:37:54;;;;;;;;;;;1.90;99.90;;;;;;5054513;28;19921;-78
2022/03/07 06:40:20;;;;;;;;;;;1.90;99.90;;;;;;5054572;28;19934;-78
2022/03/07 06:42:49;;;;;;;;;;;2.00;99.90;;;;;;5054448;28;20372;-78
2022/03/07 06:45:16;;;;;;;;;;;2.00;99.90;;;;;;5053139;28;20237;-78
2022/03/07 06:47:43;;;;;;;;;;;2.00;99.90;;;;;;5054440;28;20407;-78
2022/03/07 06:50:09;;;;;;;;;;;1.90;99.90;;;;;;5054449;28;20301;-78
2022/03/07 06:52:34;;;;;;;;;;;1.90;99.90;;;;;;5054356;28;19909;-78
2022/03/07 06:55:00;;;;;;;;;;;1.90;99.90;;;;;;5054150;28;19916;-78
2022/03/07 06:57:26;;;;;;;;;;;1.90;99.90;;;;;;5054153;28;20329;-78
2022/03/07 06:59:51;;;;;;;;;;;2.00;99.90;;;;;;5054319;28;19912;-78
2022/03/07 07:02:17;;;;;;;;;;;2.00;99.90;;;;;;5054332;28;20385;-78
2022/03/07 07:04:43;;;;;;;;;;;2.00;99.90;;;;;;5054149;28;19936;-78
2022/03/07 07:07:08;;;;;;;;;;;2.20;99.90;;;;;;5054349;28;19916;-78
2022/03/07 07:09:34;;;;;;;;;;;2.20;99.90;;;;;;5052741;28;19947;-78
2022/03/07 07:12:00;;;;;;;;;;;2.30;99.90;;;;;;5054020;28;19958;-78
2022/03/07 07:14:25;;;;;;;;;;;2.50;99.90;;;;;;5052665;28;19944;-78
2022/03/07 07:16:51;;;;;;;;;;;2.50;99.90;;;;;;5053907;28;19945;-78
2022/03/07 07:19:16;;;;;;;;;;;2.60;99.90;;;;;;5053911;28;19909;-78
2022/03/07 07:21:42;;;;;;;;;;;2.90;99.90;;;;;;5052627;28;20277;-78
2022/03/07 07:24:08;;;;;;;;;;;3.20;99.90;;;;;;5053880;28;19909;-78
2022/03/07 07:26:33;;;;;;;;;;;3.40;99.90;;;;;;5053809;28;19909;-78
2022/03/07 07:28:59;;;;;;;;;;;3.70;99.90;;;;;;5053887;28;19913;-78
2022/03/07 07:31:24;;;;;;;;;;;3.70;99.90;;;;;;5053707;28;19915;-78
2022/03/07 07:33:50;;;;;;;;;;;3.60;99.90;;;;;;5052424;28;19909;-78
2022/03/07 07:36:16;;;;;;;;;;;3.70;99.90;;;;;;5053544;28;19909;-79
2022/03/07 07:38:41;;;;;;;;;;;3.80;99.90;;;;;;5053608;28;20432;-78
2022/03/07 07:41:07;;;;;;;;;;;4.10;99.90;;;;;;5053815;28;19909;-78
2022/03/07 07:43:33;;;;;;;;;;;4.50;99.90;;;;;;5053622;28;19909;-78
2022/03/07 07:45:58;;;;;;;;;;;4.70;99.90;;;;;;5053685;28;19962;-79
2022/03/07 07:48:24;;;;;;;;;;;4.80;99.90;;;;;;5053612;28;19908;-78
2022/03/07 07:50:50;;;;;;;;;;;5.30;99.90;;;;;;5053535;28;19984;-79
2022/03/07 07:53:15;;;;;;;;;;;5.40;99.90;;;;;;5053472;28;19931;-78
2022/03/07 07:55:41;;;;;;;;;;;5.80;99.90;;;;;;5053447;28;19909;-79
2022/03/07 07:58:07;;;;;;;;;;;6.10;99.90;;;;;;5053609;28;19909;-79
2022/03/07 08:00:32;;;;;;;;;;;6.30;99.90;;;;;;5053402;28;19959;-79
2022/03/07 08:02:58;;;;;;;;;;;6.60;98.70;;;;;;5053430;28;20296;-79
2022/03/07 08:05:23;;;;;;;;;;;7.00;98.90;;;;;;5053938;28;20323;-79
2022/03/07 08:07:49;;;;;;;;;;;7.40;97.80;;;;;;5057497;28;20414;-79
2022/03/07 08:10:16;;;;;;;;;;;8.10;96.20;;;;;;5057318;28;20388;-79
2022/03/07 08:12:41;;;;;;;;;;;8.20;95.00;;;;;;5057244;28;20266;-79
2022/03/07 08:15:11;;;;;;;;;;;8.30;93.50;;;;;;5057313;28;19916;-79
2022/03/07 08:17:49;;;;;;;;;;;8.20;93.70;;;;;;5057269;28;19936;-78
2022/03/07 08:20:22;;;;;;;;;;;8.20;93.50;;;;;;5057454;28;19909;-79
2022/03/07 08:22:48;;;;;;;;;;;8.70;92.50;;;;;;5057188;28;19958;-79
2022/03/07 08:25:14;;;;;;;;;;;8.80;92.60;;;;;;5057241;28;19909;-79
2022/03/07 08:27:40;;;;;;;;;;;9.10;91.40;;;;;;5057087;28;20327;-79
2022/03/07 08:30:07;;;;;;;;;;;9.50;90.90;;;;;;5056962;28;19912;-79
2022/03/07 08:32:36;;;;;;;;;;;10.10;89.30;;;;;;5056975;28;19912;-79
2022/03/07 08:35:03;;;;;;;;;;;10.10;85.30;;;;;;5057401;28;19954;-79
2022/03/07 08:37:29;;;;;;;;;;;10.00;87.00;;;;;;5055417;28;19936;-79
2022/03/07 08:39:55;;;;;;;;;;;10.30;85.90;;;;;;5055561;28;19908;-79
2022/03/07 08:42:20;;;;;;;;;;;10.70;82.90;;;;;;5056828;28;19915;-79
2022/03/07 08:44:46;;;;;;;;;;;10.80;81.70;;;;;;5055478;28;19909;-78
2022/03/07 08:47:12;;;;;;;;;;;10.60;81.80;;;;;;5056987;28;19909;-79
2022/03/07 08:49:37;;;;;;;;;;;10.80;82.90;;;;;;5056601;28;19912;-79
2022/03/07 08:52:04;;;;;;;;;;;10.80;80.70;;;;;;5056603;28;19916;-79
2022/03/07 08:54:29;;;;;;;;;;;11.30;79.40;;;;;;5056691;28;19909;-79
2022/03/07 08:56:55;;;;;;;;;;;11.90;76.60;;;;;;5056625;28;19931;-79
2022/03/07 08:59:21;;;;;;;;;;;11.90;77.20;;;;;;5056737;28;19909;-79
2022/03/07 09:01:46;;;;;;;;;;;12.00;75.30;;;;;;5056540;28;19909;-79
2022/03/07 09:04:12;;;;;;;;;;;12.60;74.00;;;;;;5056410;28;20396;-79
2022/03/07 09:06:37;;;;;;;;;;;12.60;73.40;;;;;;5056428;28;19909;-79
2022/03/07 09:09:03;;;;;;;;;;;12.40;72.60;;;;;;5056312;28;19999;-79
2022/03/07 09:11:29;;;;;;;;;;;12.80;72.10;;;;;;5056336;28;19908;-79
2022/03/07 09:13:54;;;;;;;;;;;13.30;68.70;;;;;;5056368;28;19909;-80
2022/03/07 09:16:20;;;;;;;;;;;13.00;68.80;;;;;;5055963;28;19995;-79
2022/03/07 09:18:46;;;;;;;;;;;13.30;68.40;;;;;;5055199;28;19909;-79
2022/03/07 09:21:11;;;;;;;;;;;14.00;67.20;;;;;;5056197;28;19952;-80
2022/03/07 09:23:39;;;;;;;;;;;14.40;65.10;;;;;;5056237;28;19916;-79
2022/03/07 09:26:06;;;;;;;;;;;14.40;65.00;;;;;;5056004;28;19909;-79
2022/03/07 09:28:33;;;;;;;;;;;15.00;62.60;;;;;;5055922;28;19916;-79
2022/03/07 09:30:59;;;;;;;;;;;15.30;62.20;;;;;;5055943;28;20284;-79
2022/03/07 09:33:25;;;;;;;;;;;15.50;61.30;;;;;;5055895;28;20280;-79
2022/03/07 09:35:51;;;;;;;;;;;17.20;58.30;;;;;;5055858;28;19909;-80
2022/03/07 09:38:16;;;;;;;;;;;16.40;57.90;;;;;;5055631;28;20362;-79
2022/03/07 09:40:42;;;;;;;;;;;16.70;57.00;;;;;;5055753;28;20486;-80
2022/03/07 09:43:08;;;;;;;;;;;16.70;56.30;;;;;;5055706;28;19991;-80
2022/03/07 09:45:34;;;;;;;;;;;17.70;56.00;;;;;;5055653;28;19909;-80
2022/03/07 09:48:00;;;;;;;;;;;18.30;53.80;;;;;;5055773;28;19915;-79
2022/03/07 09:50:26;;;;;;;;;;;18.50;53.30;;;;;;5055504;28;19912;-79
2022/03/07 09:52:54;;;;;;;;;;;18.90;52.00;;;;;;5055567;28;19912;-79
2022/03/07 09:55:20;;;;;;;;;;;18.90;51.60;;;;;;5054103;28;19962;-79
2022/03/07 09:57:45;;;;;;;;;;;19.10;50.20;;;;;;5055396;28;20249;-79
2022/03/07 10:00:12;;;;;;;;;;;20.00;49.50;;;;;;5055374;28;20376;-80
2022/03/07 10:02:38;;;;;;;;;;;19.60;49.90;;;;;;5055341;28;20034;-80
2022/03/07 10:05:04;;;;;;;;;;;19.50;48.30;;;;;;5055295;28;19951;-80
2022/03/07 10:07:29;;;;;;;;;;;19.30;49.30;;;;;;5055270;28;20348;-80
2022/03/07 10:10:08;;;;;;;;;;;19.90;47.90;;;;;;5053774;28;20007;-80
2022/03/07 10:12:34;;;;;;;;;;;20.10;48.30;;;;;;5055233;28;19909;-79
2022/03/07 10:15:10;;;;;;;;;;;20.10;47.70;;;;;;5055203;28;19909;-80
2022/03/07 10:17:39;;;;;;;;;;;21.00;45.60;;;;;;5055184;28;19909;-77
2022/03/07 10:20:05;;;;;;;;;;;21.10;45.90;;;;;;5055225;28;19917;-78
2022/03/07 10:22:31;;;;;;;;;;;20.30;45.90;;;;;;5053699;28;19909;-78
2022/03/07 10:24:59;;;;;;;;;;;21.30;45.00;;;;;;5055170;28;19913;-77
2022/03/07 10:27:29;;;;;;;;;;;22.20;44.90;;;;;;5054818;28;20000;-78
2022/03/07 10:29:55;;;;;;;;;;;21.90;44.30;;;;;;5054533;28;19908;-78
2022/03/07 10:32:20;;;;;;;;;;;22.30;43.40;;;;;;5054740;28;20012;-78
2022/03/07 10:34:46;;;;;;;;;;;23.00;43.70;;;;;;5054877;28;19912;-78
2022/03/07 10:37:12;;;;;;;;;;;23.70;42.40;;;;;;5053181;28;19967;-78
2022/03/07 10:39:45;;;;;;;;;;;23.20;41.40;;;;;;5054607;28;19960;-79
2022/03/07 10:42:17;;;;;;;;;;;23.00;42.00;;;;;;5054596;28;20003;-78
2022/03/07 10:44:43;;;;;;;;;;;23.10;41.20;;;;;;5054528;28;20024;-78
2022/03/07 10:47:12;;;;;;;;;;;24.70;40.40;;;;;;5054556;28;19908;-77
2022/03/07 10:49:49;;;;;;;;;;;24.00;40.70;;;;;;5054994;28;19909;-78
2022/03/07 10:52:14;;;;;;;;;;;23.80;41.80;;;;;;5053089;28;20417;-79
2022/03/07 10:54:40;;;;;;;;;;;25.30;40.30;;;;;;5054429;28;19909;-77
2022/03/07 10:57:07;;;;;;;;;;;25.00;40.00;;;;;;5054312;28;19956;-78
2022/03/07 10:59:33;;;;;;;;;;;24.30;38.90;;;;;;5054156;28;19917;-76
2022/03/07 11:02:03;;;;;;;;;;;24.30;39.40;;;;;;5054157;28;19958;-78
2022/03/07 11:04:29;;;;;;;;;;;24.20;39.40;;;;;;5052926;28;19992;-78
2022/03/07 11:06:55;;;;;;;;;;;25.10;40.00;;;;;;5052821;28;19916;-78
2022/03/07 11:09:21;;;;;;;;;;;24.50;39.90;;;;;;5054064;28;20353;-76
2022/03/07 11:11:46;;;;;;;;;;;24.20;40.20;;;;;;5054150;28;19909;-77
2022/03/07 11:14:13;;;;;;;;;;;25.10;39.10;;;;;;5053979;28;20395;-79
2022/03/07 11:16:39;;;;;;;;;;;24.90;40.30;;;;;;5054121;28;19908;-78
2022/03/07 11:19:06;;;;;;;;;;;24.80;38.50;;;;;;5054465;28;19916;-79
2022/03/07 11:21:32;;;;;;;;;;;24.10;39.50;;;;;;5052583;28;20319;-78
2022/03/07 11:23:58;;;;;;;;;;;24.10;39.70;;;;;;5053856;28;19908;-78
2022/03/07 11:26:23;;;;;;;;;;;24.80;39.00;;;;;;5052519;28;19939;-78
2022/03/07 11:28:52;;;;;;;;;;;25.80;38.30;;;;;;5053769;28;19908;-77
2022/03/07 11:31:21;;;;;;;;;;;25.60;37.70;;;;;;5053745;28;19916;-78
2022/03/07 11:33:50;;;;;;;;;;;25.00;37.90;;;;;;5053728;28;19909;-78
2022/03/07 11:36:17;;;;;;;;;;;26.30;37.90;;;;;;5053532;28;19908;-77
2022/03/07 11:38:49;;;;;;;;;;;27.00;36.40;;;;;;5053681;28;20411;-76
2022/03/07 11:41:21;;;;;;;;;;;26.50;36.30;;;;;;5052849;28;20250;-78
2022/03/07 11:43:48;;;;;;;;;;;26.10;35.70;;;;;;5053786;28;19909;-79
2022/03/07 11:46:24;;;;;;;;;;;27.60;34.90;;;;;;5053831;28;19916;-78
2022/03/07 11:48:50;;;;;;;;;;;27.30;34.40;;;;;;5052262;28;19916;-77
2022/03/07 11:51:16;;;;;;;;;;;27.30;35.30;;;;;;5053504;28;19909;-79
2022/03/07 11:53:43;;;;;;;;;;;28.80;34.70;;;;;;5053422;28;19917;-76
2022/03/07 11:56:14;;;;;;;;;;;28.10;33.30;;;;;;5053496;28;19916;-76
2022/03/07 11:58:45;;;;;;;;;;;26.30;34.90;;;;;;5053685;28;19909;-78
2022/03/07 12:01:11;;;;;;;;;;;23.50;35.60;;;;;;5053554;28;19909;-77
2022/03/07 12:03:37;;;;;;;;;;;25.00;36.20;;;;;;5053385;28;19916;-78
2022/03/07 12:06:05;;;;;;;;;;;24.60;35.80;;;;;;5053410;28;19913;-78
2022/03/07 12:08:40;;;;;;;;;;;22.00;36.60;;;;;;5053375;28;19912;-77
2022/03/07 12:11:07;;;;;;;;;;;21.40;38.30;;;;;;5053644;28;20353;-77
2022/03/07 12:13:37;;;;;;;;;;;24.30;36.00;;;;;;5053567;28;20277;-78
2022/03/07 12:16:03;;;;;;;;;;;23.70;34.60;;;;;;5053258;28;20305;-76
2022/03/07 12:18:29;;;;;;;;;;;20.40;37.80;;;;;;5053646;28;19908;-78
2022/03/07 12:20:59;;;;;;;;;;;21.30;39.80;;;;;;5053245;28;19909;-78
2022/03/07 12:23:26;;;;;;;;;;;24.60;35.40;;;;;;5051932;28;19913;-76
2022/03/07 12:26:01;;;;;;;;;;;22.40;34.00;;;;;;5053202;28;19908;-76
2022/03/07 12:28:31;;;;;;;;;;;19.40;37.40;;;;;;5053183;28;19915;-77
2022/03/07 12:30:57;;;;;;;;;;;20.50;38.40;;;;;;5053235;28;19915;-77
2022/03/07 12:33:23;;;;;;;;;;;20.00;38.10;;;;;;5053166;28;20007;-76
2022/03/07 12:35:57;;;;;;;;;;;24.00;36.70;;;;;;5053143;28;19913;-76
2022/03/07 12:38:23;;;;;;;;;;;27.40;33.00;;;;;;5052761;28;19927;-77
2022/03/07 12:40:49;;;;;;;;;;;26.70;33.50;;;;;;5053010;28;19996;-76
2022/03/07 12:43:15;;;;;;;;;;;27.10;32.70;;;;;;5053083;28;19955;-78
2022/03/07 12:45:44;;;;;;;;;;;26.60;33.50;;;;;;5053024;28;19909;-77
2022/03/07 12:48:09;;;;;;;;;;;27.10;34.00;;;;;;5053000;28;19935;-76
2022/03/07 12:50:36;;;;;;;;;;;21.30;36.10;;;;;;5053142;28;19908;-76
2022/03/07 12:53:01;;;;;;;;;;;18.10;38.40;;;;;;5055876;28;19909;-78
2022/03/07 12:55:27;;;;;;;;;;;22.10;38.00;;;;;;5056637;28;19916;-78
2022/03/07 12:57:57;;;;;;;;;;;25.60;34.80;;;;;;5056598;28;19917;-78
2022/03/07 13:00:22;;;;;;;;;;;26.30;33.00;;;;;;5056510;28;19987;-78
2022/03/07 13:02:53;;;;;;;;;;;27.20;33.20;;;;;;5056612;28;20369;-78
2022/03/07 13:05:21;;;;;;;;;;;26.40;33.00;;;;;;5056564;28;19909;-77
2022/03/07 13:07:54;;;;;;;;;;;26.40;33.50;;;;;;5056365;28;19998;-78
2022/03/07 13:10:22;;;;;;;;;;;25.60;34.50;;;;;;5056373;28;19909;-77
2022/03/07 13:12:48;;;;;;;;;;;22.50;34.80;;;;;;5055028;28;19967;-76
2022/03/07 13:15:13;;;;;;;;;;;21.90;36.80;;;;;;5056282;28;20331;-78
2022/03/07 13:17:39;;;;;;;;;;;25.50;34.40;;;;;;5056318;28;20000;-77
2022/03/07 13:20:05;;;;;;;;;;;26.30;33.90;;;;;;5056058;28;20269;-77
2022/03/07 13:22:31;;;;;;;;;;;26.80;34.10;;;;;;5056048;28;20369;-78
2022/03/07 13:24:57;;;;;;;;;;;29.00;32.40;;;;;;5056034;28;19908;-78
2022/03/07 13:27:23;;;;;;;;;;;25.70;32.10;;;;;;5055980;28;20015;-76
2022/03/07 13:30:00;;;;;;;;;;;21.70;34.60;;;;;;5056017;28;19908;-77
2022/03/07 13:32:31;;;;;;;;;;;21.50;37.00;;;;;;5056181;28;19917;-78
2022/03/07 13:34:57;;;;;;;;;;;23.30;34.50;;;;;;5056157;28;19931;-78
2022/03/07 13:37:30;;;;;;;;;;;22.20;34.30;;;;;;5054350;28;20412;-77
2022/03/07 13:39:59;;;;;;;;;;;22.30;36.20;;;;;;5055824;28;19912;-78
2022/03/07 13:42:25;;;;;;;;;;;25.00;34.90;;;;;;5056039;28;19915;-78
2022/03/07 13:44:52;;;;;;;;;;;25.50;34.10;;;;;;5055688;28;19992;-77
2022/03/07 13:47:20;;;;;;;;;;;25.00;33.90;;;;;;5055704;28;19952;-77
2022/03/07 13:49:45;;;;;;;;;;;24.60;34.20;;;;;;5055449;28;19908;-77
2022/03/07 13:52:28;;;;;;;;;;;24.60;34.30;;;;;;5055571;28;19916;-77
2022/03/07 13:54:54;;;;;;;;;;;25.60;33.40;;;;;;5055840;28;19909;-78
2022/03/07 13:57:19;;;;;;;;;;;26.20;33.50;;;;;;5055488;28;19916;-78
2022/03/07 13:59:55;;;;;;;;;;;24.50;34.10;;;;;;5055359;28;19935;-78
2022/03/07 14:02:21;;;;;;;;;;;23.90;34.60;;;;;;5055649;28;19908;-78
2022/03/07 14:04:54;;;;;;;;;;;24.20;34.70;;;;;;5054638;28;19909;-76
2022/03/07 14:07:21;;;;;;;;;;;23.90;35.20;;;;;;5055487;28;19909;-77
2022/03/07 14:09:50;;;;;;;;;;;24.60;34.70;;;;;;5053930;28;20422;-76
2022/03/07 14:12:23;;;;;;;;;;;22.90;35.20;;;;;;5055218;28;19991;-77
2022/03/07 14:14:58;;;;;;;;;;;23.50;35.40;;;;;;5055646;28;19909;-77
2022/03/07 14:17:24;;;;;;;;;;;23.30;34.40;;;;;;5055222;28;19913;-77
2022/03/07 14:19:50;;;;;;;;;;;20.70;37.20;;;;;;5055133;28;20361;-77